Alhaurin de la Torre, Spain
Current Conditions -  °F | °C
As of 3:00 AM on Tuesday 23 Dec 2014 (Local Time) from LEMG Reporting Station
Broken Clouds Broken Clouds  
Wind Chill: 15°   Ceiling: 4500
Heat Index: 15°   Visibility: 6mi
Dew Point: 11°   Wind: 9mph
Humidity: 77%   Direction: 110°ESE
Pressure: 30.39"   Gusts: NA
Location:  36.66°N, 4.56°W
Report Text: LEMG 230200Z 11008KT 080V140 9999 FEW020 BKN045 15/11 Q1029 NOSIG
Loading
Personal Weather Stations






























Interactive Weather Map New forecast layout! Learn more

10-Day Weather Forecast

Advertisements
Track Severe Weather on mobile